Astley, United Kingdom
Current Conditions -  °F | °C
As of 4:50 AM on Wednesday 26 Nov 2014 (Local Time) from EGCC Reporting Station
Light Rain Light Rain  
Wind Chill: 37°   Ceiling: 3900
Heat Index: 43°   Visibility: 4mi
Dew Point: 43°   Wind: 9mph
Humidity: 100%   Direction: 30°NNE
Pressure: 29.97"   Gusts: NA
Location:  53.5°N, 2.46°W
Report Text: EGCC 260450Z 03008KT 7000 -RA FEW018 OVC039 06/06 Q1015 NOSIG
Loading
Personal Weather Stations






























Interactive Weather Map New forecast layout! Learn more

10-Day Weather Forecast

Advertisements
Track Severe Weather on mobile